XSN15L LEMD-LERS
Flight info
| Callsign | XSN15L |
|---|---|
| Flight time | 0h 48m |
| Altitude | 30000 |
| Route | PINAR N870 PONEN/N0443F290 N870 SEROX |
| Aircraft | A320/M-SDE3FGHIRWY/LB1 |
Departure
| Time | 2026-05-09 17:14 |
|---|---|
| Airport | Adolfo Suárez Madrid–Barajas Airport (LEMD) |
Arrival
| Time | 2026-05-09 18:02 |
|---|---|
| Airport | Reus Airport (LERS) |
| Time | Latitude | Longitude | Altitude | Speed | Heading |
|---|---|---|---|---|---|
| 2026-05-09 16:42 | 40.46017 | -3.56657 | 1976 ft | 0 kts | 270° |
| 2026-05-09 17:01 | 40.46017 | -3.56658 | 1972 ft | 1 kts | 270° |
| 2026-05-09 17:02 | 40.46019 | -3.56706 | 1972 ft | 9 kts | 282° |
| 2026-05-09 17:02 | 40.46080 | -3.56752 | 1971 ft | 14 kts | 360° |
| 2026-05-09 17:02 | 40.46194 | -3.56750 | 1971 ft | 17 kts | 5° |
| 2026-05-09 17:02 | 40.46219 | -3.56660 | 1972 ft | 12 kts | 91° |
| 2026-05-09 17:03 | 40.46221 | -3.56533 | 1971 ft | 11 kts | 72° |
| 2026-05-09 17:04 | 40.47322 | -3.56683 | 1986 ft | 29 kts | 323° |
| 2026-05-09 17:05 | 40.47489 | -3.56851 | 1991 ft | 31 kts | 323° |
| 2026-05-09 17:05 | 40.47657 | -3.57024 | 1996 ft | 32 kts | 321° |
| 2026-05-09 17:05 | 40.47838 | -3.57209 | 2002 ft | 34 kts | 322° |
| 2026-05-09 17:05 | 40.47997 | -3.57370 | 2004 ft | 28 kts | 323° |
| 2026-05-09 17:06 | 40.48167 | -3.57541 | 2000 ft | 32 kts | 321° |
| 2026-05-09 17:06 | 40.48331 | -3.57710 | 1994 ft | 24 kts | 321° |
| 2026-05-09 17:06 | 40.48456 | -3.57825 | 1992 ft | 23 kts | 331° |
| 2026-05-09 17:06 | 40.48604 | -3.57919 | 1999 ft | 23 kts | 345° |
| 2026-05-09 17:07 | 40.48759 | -3.57928 | 1999 ft | 14 kts | 359° |
| 2026-05-09 17:07 | 40.48785 | -3.57928 | 1999 ft | 12 kts | 359° |
| 2026-05-09 17:07 | 40.48836 | -3.57909 | 1998 ft | 2 kts | 112° |
| 2026-05-09 17:07 | 40.48817 | -3.57909 | 1997 ft | 5 kts | 193° |
| 2026-05-09 17:08 | 40.48765 | -3.57885 | 2011 ft | 16 kts | 110° |
| 2026-05-09 17:08 | 40.48763 | -3.57343 | 1986 ft | 30 kts | 88° |
| 2026-05-09 17:08 | 40.48765 | -3.57047 | 1980 ft | 34 kts | 90° |
| 2026-05-09 17:09 | 40.48766 | -3.56759 | 1976 ft | 30 kts | 89° |
| 2026-05-09 17:09 | 40.48769 | -3.56491 | 1971 ft | 27 kts | 89° |
| 2026-05-09 17:09 | 40.48768 | -3.56223 | 1961 ft | 22 kts | 85° |
| 2026-05-09 17:09 | 40.48772 | -3.56193 | 1961 ft | 4 kts | 75° |
| 2026-05-09 17:10 | 40.48805 | -3.56202 | 1961 ft | 9 kts | 300° |
| 2026-05-09 17:10 | 40.48868 | -3.56236 | 1962 ft | 11 kts | 36° |
| 2026-05-09 17:10 | 40.48881 | -3.56141 | 1959 ft | 14 kts | 38° |
| 2026-05-09 17:10 | 40.48990 | -3.56140 | 1959 ft | 19 kts | 0° |
| 2026-05-09 17:11 | 40.49123 | -3.56140 | 1959 ft | 19 kts | 357° |
| 2026-05-09 17:11 | 40.49229 | -3.56143 | 1959 ft | 13 kts | 0° |
| 2026-05-09 17:11 | 40.49318 | -3.56142 | 1959 ft | 12 kts | 1° |
| 2026-05-09 17:11 | 40.49398 | -3.56141 | 1959 ft | 11 kts | 358° |
| 2026-05-09 17:12 | 40.49471 | -3.56143 | 1959 ft | 10 kts | 1° |
| 2026-05-09 17:12 | 40.49534 | -3.56136 | 1959 ft | 8 kts | 25° |
| 2026-05-09 17:12 | 40.49554 | -3.56081 | 1960 ft | 6 kts | 83° |
| 2026-05-09 17:12 | 40.49554 | -3.56033 | 1960 ft | 4 kts | 92° |
| 2026-05-09 17:13 | 40.49554 | -3.56001 | 1960 ft | 3 kts | 90° |
| 2026-05-09 17:13 | 40.49550 | -3.55906 | 1961 ft | 23 kts | 99° |
| 2026-05-09 17:13 | 40.49420 | -3.55721 | 1963 ft | 56 kts | 142° |
| 2026-05-09 17:13 | 40.48862 | -3.55158 | 1955 ft | 142 kts | 142° |
| 2026-05-09 17:14 | 40.47948 | -3.54215 | 2370 ft | 176 kts | 142° |
| 2026-05-09 17:14 | 40.46961 | -3.53157 | 3235 ft | 189 kts | 142° |
| 2026-05-09 17:14 | 40.45866 | -3.52145 | 4028 ft | 197 kts | 149° |
| 2026-05-09 17:14 | 40.44698 | -3.51153 | 4877 ft | 203 kts | 152° |
| 2026-05-09 17:15 | 40.43492 | -3.50147 | 5709 ft | 208 kts | 151° |
| 2026-05-09 17:15 | 40.42357 | -3.48893 | 6451 ft | 226 kts | 132° |
| 2026-05-09 17:15 | 40.41578 | -3.47026 | 7048 ft | 245 kts | 118° |
| 2026-05-09 17:15 | 40.40958 | -3.44912 | 7885 ft | 250 kts | 115° |
| 2026-05-09 17:16 | 40.40357 | -3.42757 | 8793 ft | 253 kts | 116° |
| 2026-05-09 17:17 | 40.46338 | -3.31281 | 12986 ft | 316 kts | 4° |
| 2026-05-09 17:18 | 40.48521 | -3.30929 | 13000 ft | 316 kts | 4° |
| 2026-05-09 17:18 | 40.50699 | -3.30579 | 13009 ft | 316 kts | 4° |
| 2026-05-09 17:18 | 40.52851 | -3.30229 | 13021 ft | 316 kts | 4° |
| 2026-05-09 17:18 | 40.55068 | -3.29779 | 13443 ft | 334 kts | 13° |
| 2026-05-09 17:19 | 40.57220 | -3.28373 | 13711 ft | 361 kts | 39° |
| 2026-05-09 17:19 | 40.58844 | -3.25766 | 13889 ft | 381 kts | 65° |
| 2026-05-09 17:19 | 40.59893 | -3.22494 | 14294 ft | 393 kts | 70° |
| 2026-05-09 17:19 | 40.60888 | -3.19111 | 14921 ft | 400 kts | 71° |
| 2026-05-09 17:20 | 40.61878 | -3.15669 | 15561 ft | 405 kts | 71° |
| 2026-05-09 17:20 | 40.62541 | -3.13357 | 16007 ft | 408 kts | 71° |
| 2026-05-09 17:20 | 40.63557 | -3.09839 | 16652 ft | 414 kts | 71° |
| 2026-05-09 17:20 | 40.64596 | -3.06284 | 17310 ft | 419 kts | 71° |
| 2026-05-09 17:21 | 40.65654 | -3.02687 | 17961 ft | 424 kts | 71° |
| 2026-05-09 17:21 | 40.66730 | -2.99047 | 18518 ft | 429 kts | 71° |
| 2026-05-09 17:21 | 40.68173 | -2.94164 | 19236 ft | 435 kts | 70° |
| 2026-05-09 17:21 | 40.69272 | -2.90434 | 19777 ft | 439 kts | 71° |
| 2026-05-09 17:22 | 40.70018 | -2.87896 | 20149 ft | 442 kts | 71° |
| 2026-05-09 17:22 | 40.71131 | -2.84100 | 20693 ft | 446 kts | 71° |
| 2026-05-09 17:22 | 40.72235 | -2.80320 | 21184 ft | 450 kts | 71° |
| 2026-05-09 17:22 | 40.73358 | -2.76469 | 21718 ft | 454 kts | 71° |
| 2026-05-09 17:23 | 40.74499 | -2.72552 | 22233 ft | 458 kts | 71° |
| 2026-05-09 17:23 | 40.75647 | -2.68619 | 22744 ft | 462 kts | 70° |
| 2026-05-09 17:23 | 40.76807 | -2.64652 | 23233 ft | 465 kts | 70° |
| 2026-05-09 17:23 | 40.77973 | -2.60654 | 23681 ft | 469 kts | 70° |
| 2026-05-09 17:25 | 40.83876 | -2.40232 | 25747 ft | 483 kts | 70° |
| 2026-05-09 17:25 | 40.85056 | -2.36136 | 26156 ft | 486 kts | 70° |
| 2026-05-09 17:25 | 40.86257 | -2.31950 | 26552 ft | 488 kts | 70° |
| 2026-05-09 17:25 | 40.87464 | -2.27743 | 26945 ft | 491 kts | 70° |
| 2026-05-09 17:26 | 40.88674 | -2.23515 | 27327 ft | 494 kts | 70° |
| 2026-05-09 17:26 | 40.89891 | -2.19257 | 27703 ft | 496 kts | 70° |
| 2026-05-09 17:26 | 40.91112 | -2.14977 | 28056 ft | 499 kts | 70° |
| 2026-05-09 17:26 | 40.92335 | -2.10679 | 28421 ft | 501 kts | 70° |
| 2026-05-09 17:27 | 40.93565 | -2.06356 | 28769 ft | 504 kts | 70° |
| 2026-05-09 17:27 | 40.94797 | -2.02024 | 29123 ft | 506 kts | 70° |
| 2026-05-09 17:27 | 40.96023 | -1.97707 | 29458 ft | 508 kts | 70° |
| 2026-05-09 17:27 | 40.97265 | -1.93321 | 29787 ft | 510 kts | 70° |
| 2026-05-09 17:28 | 40.98505 | -1.88925 | 29908 ft | 507 kts | 70° |
| 2026-05-09 17:28 | 40.99731 | -1.84583 | 29911 ft | 501 kts | 70° |
| 2026-05-09 17:28 | 41.02154 | -1.75971 | 29910 ft | 498 kts | 70° |
| 2026-05-09 17:29 | 41.04569 | -1.67369 | 29903 ft | 497 kts | 71° |
| 2026-05-09 17:29 | 41.06966 | -1.58783 | 29902 ft | 497 kts | 71° |
| 2026-05-09 17:30 | 41.09341 | -1.50259 | 29898 ft | 495 kts | 71° |
| 2026-05-09 17:30 | 41.11720 | -1.41687 | 29897 ft | 495 kts | 71° |
| 2026-05-09 17:31 | 41.14084 | -1.33131 | 29899 ft | 494 kts | 71° |
| 2026-05-09 17:32 | 41.19944 | -1.11828 | 29898 ft | 492 kts | 71° |
| 2026-05-09 17:33 | 41.22277 | -1.03283 | 29893 ft | 491 kts | 71° |
| 2026-05-09 17:33 | 41.24597 | -0.94764 | 29894 ft | 490 kts | 71° |
| 2026-05-09 17:34 | 41.26915 | -0.86244 | 29749 ft | 490 kts | 71° |
| 2026-05-09 17:35 | 41.33758 | -0.60877 | 25943 ft | 482 kts | 72° |
| 2026-05-09 17:35 | 41.34749 | -0.56627 | 25094 ft | 479 kts | 78° |
| 2026-05-09 17:36 | 41.35279 | -0.52267 | 24293 ft | 476 kts | 88° |
| 2026-05-09 17:36 | 41.35354 | -0.47886 | 23517 ft | 472 kts | 93° |
| 2026-05-09 17:36 | 41.35316 | -0.43529 | 22673 ft | 469 kts | 93° |
| 2026-05-09 17:36 | 41.35282 | -0.39211 | 21956 ft | 465 kts | 92° |
| 2026-05-09 17:37 | 41.35252 | -0.34988 | 21261 ft | 460 kts | 92° |
| 2026-05-09 17:37 | 41.35223 | -0.30740 | 20579 ft | 456 kts | 92° |
| 2026-05-09 17:37 | 41.35190 | -0.26542 | 19905 ft | 452 kts | 92° |
| 2026-05-09 17:37 | 41.35153 | -0.22374 | 19277 ft | 448 kts | 92° |
| 2026-05-09 17:38 | 41.35114 | -0.18244 | 18650 ft | 444 kts | 92° |
| 2026-05-09 17:38 | 41.35075 | -0.14162 | 18043 ft | 439 kts | 92° |
| 2026-05-09 17:38 | 41.35036 | -0.10127 | 17451 ft | 433 kts | 91° |
| 2026-05-09 17:39 | 41.34957 | -0.02235 | 16339 ft | 420 kts | 91° |
| 2026-05-09 17:39 | 41.34917 | 0.01579 | 15807 ft | 415 kts | 91° |
| 2026-05-09 17:39 | 41.34875 | 0.05402 | 15233 ft | 411 kts | 91° |
| 2026-05-09 17:39 | 41.34831 | 0.09186 | 14669 ft | 407 kts | 91° |
| 2026-05-09 17:40 | 41.34784 | 0.12945 | 14075 ft | 405 kts | 91° |
| 2026-05-09 17:40 | 41.34736 | 0.16675 | 13430 ft | 403 kts | 91° |
| 2026-05-09 17:40 | 41.34664 | 0.20382 | 12802 ft | 398 kts | 95° |
| 2026-05-09 17:40 | 41.34222 | 0.23995 | 12154 ft | 394 kts | 105° |
| 2026-05-09 17:41 | 41.33483 | 0.27476 | 11495 ft | 390 kts | 107° |
| 2026-05-09 17:41 | 41.32757 | 0.30886 | 10863 ft | 386 kts | 107° |
| 2026-05-09 17:41 | 41.32045 | 0.34255 | 10681 ft | 369 kts | 107° |
| 2026-05-09 17:41 | 41.31370 | 0.37465 | 10563 ft | 352 kts | 107° |
| 2026-05-09 17:42 | 41.30725 | 0.40530 | 10433 ft | 337 kts | 107° |
| 2026-05-09 17:42 | 41.30105 | 0.43468 | 10314 ft | 323 kts | 107° |
| 2026-05-09 17:42 | 41.29508 | 0.46286 | 10193 ft | 311 kts | 107° |
| 2026-05-09 17:42 | 41.28938 | 0.49009 | 10040 ft | 301 kts | 106° |
| 2026-05-09 17:43 | 41.28751 | 0.51792 | 9646 ft | 302 kts | 87° |
| 2026-05-09 17:43 | 41.28912 | 0.54532 | 9410 ft | 294 kts | 86° |
| 2026-05-09 17:43 | 41.29064 | 0.57228 | 9084 ft | 291 kts | 86° |
| 2026-05-09 17:43 | 41.29162 | 0.58998 | 8846 ft | 289 kts | 86° |
| 2026-05-09 17:44 | 41.29168 | 0.59104 | 8845 ft | 288 kts | 86° |
| 2026-05-09 17:44 | 41.29338 | 0.61258 | 8550 ft | 285 kts | 84° |
| 2026-05-09 17:44 | 41.29508 | 0.63872 | 8182 ft | 282 kts | 86° |
| 2026-05-09 17:45 | 41.29642 | 0.66461 | 7834 ft | 279 kts | 86° |
| 2026-05-09 17:45 | 41.29767 | 0.69025 | 7478 ft | 276 kts | 86° |
| 2026-05-09 17:45 | 41.29893 | 0.71556 | 7133 ft | 273 kts | 86° |
| 2026-05-09 17:45 | 41.30020 | 0.74029 | 6770 ft | 270 kts | 85° |
| 2026-05-09 17:46 | 41.30150 | 0.76511 | 6421 ft | 268 kts | 85° |
| 2026-05-09 17:46 | 41.30285 | 0.79040 | 6041 ft | 266 kts | 85° |
| 2026-05-09 17:46 | 41.30418 | 0.81455 | 5645 ft | 264 kts | 85° |
| 2026-05-09 17:46 | 41.30554 | 0.83890 | 5236 ft | 263 kts | 85° |
| 2026-05-09 17:47 | 41.30687 | 0.86304 | 4950 ft | 260 kts | 85° |
| 2026-05-09 17:47 | 41.30821 | 0.88711 | 4935 ft | 262 kts | 85° |
| 2026-05-09 17:47 | 41.30955 | 0.91129 | 4938 ft | 262 kts | 85° |
| 2026-05-09 17:47 | 41.31087 | 0.93552 | 4943 ft | 263 kts | 85° |
| 2026-05-09 17:48 | 41.31218 | 0.95974 | 4942 ft | 262 kts | 85° |
| 2026-05-09 17:48 | 41.31350 | 0.98374 | 5167 ft | 262 kts | 85° |
| 2026-05-09 17:48 | 41.31480 | 1.00767 | 5451 ft | 263 kts | 85° |
| 2026-05-09 17:48 | 41.31612 | 1.03203 | 5770 ft | 265 kts | 85° |
| 2026-05-09 17:49 | 41.31739 | 1.05553 | 6061 ft | 267 kts | 85° |
| 2026-05-09 17:49 | 41.31857 | 1.07762 | 6335 ft | 268 kts | 84° |
| 2026-05-09 17:49 | 41.31991 | 1.10241 | 6473 ft | 269 kts | 84° |
| 2026-05-09 17:49 | 41.32122 | 1.12722 | 6505 ft | 269 kts | 84° |
| 2026-05-09 17:50 | 41.32258 | 1.15304 | 6503 ft | 269 kts | 85° |
| 2026-05-09 17:50 | 41.32517 | 1.20266 | 6505 ft | 269 kts | 84° |
| 2026-05-09 17:50 | 41.32645 | 1.22714 | 6511 ft | 269 kts | 84° |
| 2026-05-09 17:51 | 41.32774 | 1.25201 | 6511 ft | 269 kts | 84° |
| 2026-05-09 17:51 | 41.32901 | 1.27688 | 6508 ft | 269 kts | 84° |
| 2026-05-09 17:51 | 41.33027 | 1.30169 | 6509 ft | 269 kts | 84° |
| 2026-05-09 17:51 | 41.33151 | 1.32652 | 6510 ft | 269 kts | 84° |
| 2026-05-09 17:52 | 41.33277 | 1.35136 | 6511 ft | 269 kts | 84° |
| 2026-05-09 17:52 | 41.33403 | 1.37612 | 6511 ft | 268 kts | 84° |
| 2026-05-09 17:52 | 41.33526 | 1.40053 | 6508 ft | 256 kts | 85° |
| 2026-05-09 17:52 | 41.33638 | 1.42299 | 6511 ft | 238 kts | 84° |
| 2026-05-09 17:53 | 41.33743 | 1.44423 | 6508 ft | 222 kts | 85° |
| 2026-05-09 17:53 | 41.33841 | 1.46432 | 6513 ft | 215 kts | 84° |
| 2026-05-09 17:53 | 41.33941 | 1.48413 | 6517 ft | 214 kts | 84° |
| 2026-05-09 17:53 | 41.34041 | 1.50391 | 6509 ft | 214 kts | 85° |
| 2026-05-09 17:54 | 41.34142 | 1.52363 | 6514 ft | 214 kts | 85° |
| 2026-05-09 17:54 | 41.34244 | 1.54332 | 6515 ft | 214 kts | 84° |
| 2026-05-09 17:54 | 41.34099 | 1.56296 | 6511 ft | 216 kts | 110° |
| 2026-05-09 17:54 | 41.33202 | 1.57888 | 6517 ft | 221 kts | 142° |
| 2026-05-09 17:55 | 41.31779 | 1.58584 | 6513 ft | 226 kts | 176° |
| 2026-05-09 17:55 | 41.30254 | 1.58102 | 6515 ft | 231 kts | 211° |
| 2026-05-09 17:55 | 41.29138 | 1.56580 | 6515 ft | 233 kts | 234° |
| 2026-05-09 17:55 | 41.28159 | 1.54830 | 6195 ft | 241 kts | 233° |
| 2026-05-09 17:56 | 41.27114 | 1.53042 | 5785 ft | 247 kts | 232° |
| 2026-05-09 17:56 | 41.26057 | 1.51255 | 5497 ft | 245 kts | 232° |
| 2026-05-09 17:56 | 41.25006 | 1.49482 | 5264 ft | 243 kts | 231° |
| 2026-05-09 17:57 | 41.22519 | 1.46539 | 4632 ft | 244 kts | 238° |
| 2026-05-09 17:57 | 41.22107 | 1.44424 | 4320 ft | 236 kts | 276° |
| 2026-05-09 17:57 | 41.22258 | 1.42305 | 4034 ft | 226 kts | 268° |
| 2026-05-09 17:57 | 41.21740 | 1.40395 | 3760 ft | 219 kts | 240° |
| 2026-05-09 17:58 | 41.21074 | 1.38589 | 3476 ft | 218 kts | 248° |
| 2026-05-09 17:58 | 41.20531 | 1.36738 | 3181 ft | 211 kts | 249° |
| 2026-05-09 17:58 | 41.20020 | 1.34953 | 2924 ft | 203 kts | 250° |
| 2026-05-09 17:58 | 41.19532 | 1.33257 | 2655 ft | 191 kts | 250° |
| 2026-05-09 17:59 | 41.19069 | 1.31655 | 2395 ft | 181 kts | 250° |
| 2026-05-09 17:59 | 41.18635 | 1.30155 | 2157 ft | 172 kts | 250° |
| 2026-05-09 17:59 | 41.18215 | 1.28705 | 1927 ft | 163 kts | 249° |
| 2026-05-09 17:59 | 41.17819 | 1.27336 | 1717 ft | 155 kts | 249° |
| 2026-05-09 18:00 | 41.17447 | 1.26048 | 1585 ft | 146 kts | 249° |
| 2026-05-09 18:00 | 41.17066 | 1.24808 | 1287 ft | 144 kts | 247° |
| 2026-05-09 18:00 | 41.16696 | 1.23606 | 1102 ft | 139 kts | 249° |
| 2026-05-09 18:00 | 41.16379 | 1.22407 | 929 ft | 137 kts | 251° |
| 2026-05-09 18:01 | 41.16053 | 1.21230 | 713 ft | 134 kts | 251° |
| 2026-05-09 18:01 | 41.15716 | 1.20078 | 560 ft | 134 kts | 249° |
| 2026-05-09 18:01 | 41.15389 | 1.18949 | 379 ft | 133 kts | 251° |
| 2026-05-09 18:01 | 41.15064 | 1.17818 | 248 ft | 125 kts | 250° |
| 2026-05-09 18:02 | 41.14790 | 1.16883 | 242 ft | 87 kts | 249° |
| 2026-05-09 18:02 | 41.14615 | 1.16288 | 241 ft | 56 kts | 248° |
| 2026-05-09 18:02 | 41.14519 | 1.15958 | 241 ft | 23 kts | 250° |
| 2026-05-09 18:02 | 41.14494 | 1.15864 | 241 ft | 0 kts | 251° |
| 2026-05-09 18:03 | 41.14480 | 1.15808 | 242 ft | 8 kts | 250° |
| 2026-05-09 18:03 | 41.14455 | 1.15716 | 242 ft | 10 kts | 250° |
| 2026-05-09 18:03 | 41.14436 | 1.15649 | 242 ft | 4 kts | 249° |